createdAt,value
2019-01-15T00:01:05.251Z,9.93
2019-01-15T00:03:34.902Z,13.47
2019-01-15T00:06:04.793Z,10.63
2019-01-15T00:08:34.429Z,8.57
2019-01-15T00:11:04.180Z,8.50
2019-01-15T00:13:33.846Z,5.60
2019-01-15T00:16:03.527Z,6.87
2019-01-15T00:18:33.228Z,10.87
2019-01-15T00:21:02.896Z,4.83
2019-01-15T00:23:32.811Z,7.27
2019-01-15T00:26:02.468Z,10.17
2019-01-15T00:28:32.157Z,20.30
2019-01-15T00:31:01.786Z,13.73
2019-01-15T00:33:31.525Z,12.93
2019-01-15T00:36:01.224Z,5.87
2019-01-15T00:38:30.928Z,9.67
2019-01-15T00:41:00.619Z,7.83
2019-01-15T00:43:30.231Z,12.40
2019-01-15T00:45:59.890Z,11.97
2019-01-15T00:48:29.515Z,7.70
2019-01-15T00:50:59.200Z,11.13
2019-01-15T00:53:28.834Z,9.80
2019-01-15T00:55:58.576Z,11.63
2019-01-15T00:58:28.287Z,15.30
2019-01-15T01:00:57.910Z,6.60
2019-01-15T01:03:27.667Z,7.73
2019-01-15T01:05:57.439Z,10.40
2019-01-15T01:08:27.195Z,11.23
2019-01-15T01:10:56.828Z,6.33
2019-01-15T01:13:26.544Z,9.00
2019-01-15T01:15:56.166Z,13.50
2019-01-15T01:18:25.898Z,10.97
2019-01-15T01:20:55.549Z,12.40
2019-01-15T01:23:25.203Z,5.83
2019-01-15T01:25:54.906Z,12.50
2019-01-15T01:28:24.617Z,12.87
2019-01-15T01:30:54.334Z,8.63
2019-01-15T01:33:23.977Z,7.33
2019-01-15T01:35:53.676Z,7.53
2019-01-15T01:38:23.305Z,9.60
2019-01-15T01:40:52.970Z,13.23
2019-01-15T01:43:22.735Z,7.63
2019-01-15T01:45:52.489Z,10.63
2019-01-15T01:48:22.169Z,8.67
2019-01-15T01:50:51.890Z,6.50
2019-01-15T01:53:21.545Z,12.53
2019-01-15T01:55:51.218Z,12.90
2019-01-15T01:58:20.920Z,10.53
2019-01-15T02:00:50.578Z,8.37
2019-01-15T02:03:20.204Z,10.43
2019-01-15T02:05:49.847Z,11.00
2019-01-15T02:08:19.468Z,9.30
2019-01-15T02:10:49.155Z,11.53
2019-01-15T02:13:18.846Z,10.37
2019-01-15T02:15:48.523Z,9.10
2019-01-15T02:18:18.191Z,6.90
2019-01-15T02:20:47.859Z,9.77
2019-01-15T02:23:17.563Z,13.10
2019-01-15T02:25:47.230Z,14.77
2019-01-15T02:28:16.904Z,6.67
2019-01-15T02:30:46.772Z,9.90
2019-01-15T02:33:16.490Z,10.93
2019-01-15T02:35:46.135Z,14.27
2019-01-15T02:38:15.846Z,8.80
2019-01-15T02:40:45.524Z,13.47
2019-01-15T02:43:15.317Z,20.17
2019-01-15T02:45:45.012Z,13.13
2019-01-15T02:48:14.669Z,4.83
2019-01-15T02:50:44.347Z,8.67
2019-01-15T02:53:13.980Z,7.73
2019-01-15T02:55:43.675Z,10.60
2019-01-15T02:58:13.363Z,6.77
2019-01-15T03:00:43.005Z,14.00
2019-01-15T03:03:12.741Z,18.13
2019-01-15T03:05:42.395Z,7.73
2019-01-15T03:08:15.187Z,10.47
2019-01-15T03:10:44.818Z,8.83
2019-01-15T03:13:14.478Z,17.70
2019-01-15T03:15:44.210Z,15.53
2019-01-15T03:18:13.865Z,9.67
2019-01-15T03:20:43.599Z,9.83
2019-01-15T03:23:13.293Z,7.57
2019-01-15T03:25:43.096Z,11.13
2019-01-15T03:28:12.770Z,11.40
2019-01-15T03:30:42.448Z,12.43
2019-01-15T03:33:12.193Z,11.63
2019-01-15T03:35:41.875Z,9.37
2019-01-15T03:38:11.532Z,19.87
2019-01-15T03:40:41.215Z,9.47
2019-01-15T03:43:10.966Z,6.97
2019-01-15T03:45:40.664Z,7.77
2019-01-15T03:48:10.391Z,9.33
2019-01-15T03:50:40.101Z,12.90
2019-01-15T03:53:09.826Z,12.83
2019-01-15T03:55:39.543Z,13.17
2019-01-15T03:58:09.277Z,7.83
2019-01-15T04:00:38.953Z,12.83
2019-01-15T04:03:08.718Z,8.33
2019-01-15T04:05:38.404Z,10.87
2019-01-15T04:08:08.121Z,9.60
2019-01-15T04:10:37.776Z,12.83
2019-01-15T04:13:11.458Z,14.50
2019-01-15T04:15:38.805Z,8.40
2019-01-15T04:18:08.494Z,8.83
2019-01-15T04:20:38.206Z,11.23
2019-01-15T04:23:07.873Z,13.23
2019-01-15T04:25:37.590Z,12.80
2019-01-15T04:28:07.502Z,10.50
2019-01-15T04:30:37.174Z,18.90
2019-01-15T04:33:06.855Z,8.63
2019-01-15T04:35:36.557Z,18.63
2019-01-15T04:38:06.190Z,13.67
2019-01-15T04:40:35.899Z,12.03
2019-01-15T04:43:05.637Z,12.80
2019-01-15T04:45:35.373Z,9.70
2019-01-15T04:48:05.033Z,5.70
2019-01-15T04:50:35.031Z,11.43
2019-01-15T04:53:04.879Z,8.40
2019-01-15T04:55:34.571Z,11.03
2019-01-15T04:58:04.378Z,14.20
2019-01-15T05:00:34.087Z,11.03
2019-01-15T05:03:07.241Z,7.80
2019-01-15T05:05:37.169Z,11.57
2019-01-15T05:08:06.939Z,10.97
2019-01-15T05:10:36.896Z,12.50
2019-01-15T05:13:07.355Z,12.40
2019-01-15T05:15:36.996Z,10.97
2019-01-15T05:18:06.700Z,8.53
2019-01-15T05:20:36.345Z,8.80
2019-01-15T05:23:06.065Z,8.10
2019-01-15T05:25:35.723Z,12.37
2019-01-15T05:28:05.602Z,4.37
2019-01-15T05:30:35.422Z,6.37
2019-01-15T05:33:05.054Z,10.53
2019-01-15T05:35:34.685Z,8.67
2019-01-15T05:38:04.491Z,8.27
2019-01-15T05:40:34.185Z,10.40
2019-01-15T05:43:03.952Z,17.40
2019-01-15T05:45:38.278Z,7.87
2019-01-15T05:48:36.067Z,11.07
2019-01-15T05:51:30.581Z,11.07
2019-01-15T05:54:00.177Z,7.50
2019-01-15T05:56:29.917Z,12.90
2019-01-15T05:58:59.566Z,5.97
2019-01-15T06:01:29.220Z,6.97
2019-01-15T06:03:58.823Z,10.53
2019-01-15T06:06:28.488Z,9.63
2019-01-15T06:08:58.175Z,8.20
2019-01-15T06:11:27.972Z,10.97
2019-01-15T06:13:57.706Z,7.50
2019-01-15T06:16:27.396Z,13.13
2019-01-15T06:18:57.118Z,9.03
2019-01-15T06:21:26.743Z,4.10
2019-01-15T06:23:56.476Z,8.37
2019-01-15T06:26:26.214Z,6.50
2019-01-15T06:28:55.905Z,12.90
2019-01-15T06:31:25.560Z,5.67
2019-01-15T06:33:55.273Z,10.73
2019-01-15T06:36:24.993Z,7.93
2019-01-15T06:38:54.654Z,6.00
2019-01-15T06:41:24.300Z,12.17
2019-01-15T06:43:54.019Z,9.43
2019-01-15T06:46:23.686Z,6.93
2019-01-15T06:48:53.527Z,5.43
2019-01-15T06:51:23.197Z,11.17
2019-01-15T06:53:52.841Z,4.87
2019-01-15T06:56:22.625Z,11.37
2019-01-15T06:58:52.360Z,14.77
2019-01-15T07:01:22.139Z,8.60
2019-01-15T07:03:51.749Z,6.53
2019-01-15T07:06:21.419Z,9.97
2019-01-15T07:08:51.123Z,9.20
2019-01-15T07:11:20.832Z,9.23
2019-01-15T07:13:56.858Z,8.60
2019-01-15T07:16:22.153Z,6.23
2019-01-15T07:18:51.807Z,8.10
2019-01-15T07:21:21.558Z,8.57
2019-01-15T07:23:51.569Z,5.63
2019-01-15T07:26:21.240Z,6.13
2019-01-15T07:28:50.881Z,6.37
2019-01-15T07:31:20.513Z,4.63
2019-01-15T07:33:50.232Z,6.80
2019-01-15T07:36:19.872Z,5.47
2019-01-15T07:38:49.523Z,6.90
2019-01-15T07:41:19.251Z,8.43
2019-01-15T07:43:48.895Z,9.10
2019-01-15T07:46:18.630Z,1.70
2019-01-15T07:48:48.551Z,3.57
2019-01-15T07:51:18.234Z,5.80
2019-01-15T07:53:47.931Z,4.60
2019-01-15T07:56:18.150Z,9.47
2019-01-15T07:58:47.776Z,4.50
2019-01-15T08:01:19.008Z,11.23
2019-01-15T08:03:48.702Z,4.20
2019-01-15T08:06:18.412Z,6.77
2019-01-15T08:08:48.145Z,6.73
2019-01-15T08:11:17.882Z,6.17
2019-01-15T08:13:47.626Z,2.83
2019-01-15T08:16:17.404Z,4.80
2019-01-15T08:18:47.060Z,5.50
2019-01-15T08:21:16.785Z,7.77
2019-01-15T08:23:46.507Z,3.43
2019-01-15T08:26:16.154Z,4.00
2019-01-15T08:28:45.856Z,5.77
2019-01-15T08:31:15.601Z,6.30
2019-01-15T08:33:45.435Z,6.20
2019-01-15T08:36:15.174Z,7.60
2019-01-15T08:38:44.943Z,3.37
2019-01-15T08:41:14.642Z,4.80
2019-01-15T08:43:44.341Z,8.73
2019-01-15T08:46:14.136Z,5.70
2019-01-15T08:48:43.863Z,6.00
2019-01-15T08:51:14.160Z,6.03
2019-01-15T08:53:44.504Z,8.10
2019-01-15T08:56:14.554Z,6.57
2019-01-15T08:58:44.305Z,6.87
2019-01-15T09:01:14.484Z,7.30
2019-01-15T09:03:44.300Z,6.60
2019-01-15T09:06:13.950Z,2.17
2019-01-15T09:08:43.553Z,4.63
2019-01-15T09:11:13.298Z,7.47
2019-01-15T09:13:43.105Z,6.97
2019-01-15T09:16:12.851Z,5.87
2019-01-15T09:18:42.726Z,9.17
2019-01-15T09:21:12.440Z,10.03
2019-01-15T09:23:42.166Z,4.50
2019-01-15T09:26:11.931Z,3.60
2019-01-15T09:28:41.851Z,9.37
2019-01-15T09:31:11.637Z,7.30
2019-01-15T09:33:41.610Z,5.03
2019-01-15T09:36:11.502Z,6.20
2019-01-15T09:38:41.231Z,7.97
2019-01-15T09:41:23.376Z,2.57
2019-01-15T09:43:53.730Z,5.23
2019-01-15T09:46:25.424Z,6.53
2019-01-15T09:48:56.424Z,6.90
2019-01-15T09:51:28.158Z,4.23
2019-01-15T09:53:58.576Z,4.30
2019-01-15T09:56:29.737Z,8.73
2019-01-15T09:59:00.473Z,5.00
2019-01-15T10:01:31.017Z,5.80
2019-01-15T10:04:04.349Z,6.80
2019-01-15T10:06:34.486Z,4.53
2019-01-15T10:09:08.037Z,8.63
2019-01-15T10:11:39.226Z,15.27
2019-01-15T10:14:31.255Z,6.97
2019-01-15T10:17:01.504Z,5.60
2019-01-15T10:19:32.211Z,2.90
2019-01-15T10:22:03.892Z,8.23
2019-01-15T10:24:35.817Z,5.80
2019-01-15T10:27:11.757Z,10.53
2019-01-15T10:29:58.979Z,8.30
2019-01-15T10:32:48.106Z,5.17
2019-01-15T10:36:00.426Z,4.07
2019-01-15T10:38:32.228Z,8.27
2019-01-15T10:41:08.039Z,4.67
2019-01-15T10:43:37.709Z,7.13
2019-01-15T10:46:09.672Z,9.60
2019-01-15T10:48:43.120Z,8.00
2019-01-15T10:51:13.840Z,7.00
2019-01-15T10:53:48.932Z,6.70
2019-01-15T10:56:20.483Z,5.23
2019-01-15T10:59:00.594Z,5.17
2019-01-15T11:01:32.265Z,8.00
2019-01-15T11:04:02.567Z,6.70
2019-01-15T11:06:38.199Z,5.57
2019-01-15T11:09:14.873Z,6.00
2019-01-15T11:11:46.529Z,8.00
2019-01-15T11:14:42.468Z,6.03
2019-01-15T11:17:22.906Z,6.93
2019-01-15T11:19:52.551Z,6.37
2019-01-15T11:22:23.234Z,9.70
2019-01-15T11:24:54.921Z,6.27
2019-01-15T11:27:36.899Z,8.50
2019-01-15T11:30:17.308Z,8.10
2019-01-15T11:32:50.204Z,8.27
2019-01-15T11:35:36.814Z,7.03
2019-01-15T11:38:07.317Z,7.63
2019-01-15T11:40:37.280Z,8.27
2019-01-15T11:43:12.959Z,7.20
2019-01-15T11:45:44.010Z,8.60
2019-01-15T11:48:15.397Z,7.53
2019-01-15T11:50:46.370Z,14.17
2019-01-15T11:53:28.066Z,6.63
2019-01-15T11:56:21.544Z,10.20
2019-01-15T11:58:52.327Z,13.47
2019-01-15T12:01:44.273Z,8.73
2019-01-15T12:04:46.872Z,9.73
2019-01-15T12:07:36.259Z,11.10
2019-01-15T12:10:27.447Z,10.90
2019-01-15T12:13:22.462Z,9.70
2019-01-15T12:16:01.560Z,7.90
2019-01-15T12:19:12.071Z,11.43
2019-01-15T12:22:24.249Z,8.70
2019-01-15T12:25:34.449Z,9.07
2019-01-15T12:28:32.700Z,9.83
2019-01-15T12:34:45.880Z,11.93
2019-01-15T12:37:33.134Z,10.83
2019-01-15T12:40:53.382Z,11.33
2019-01-15T12:43:42.964Z,10.73
2019-01-15T12:46:35.087Z,10.20
2019-01-15T12:49:23.431Z,10.60
2019-01-15T12:52:17.899Z,13.87
2019-01-15T12:55:21.832Z,11.33
2019-01-15T12:58:09.226Z,15.23
2019-01-15T13:00:59.120Z,8.60
2019-01-15T13:03:42.417Z,11.43
2019-01-15T13:06:30.063Z,12.77
2019-01-15T13:09:17.886Z,15.43
2019-01-15T13:12:13.641Z,14.30
2019-01-15T13:15:02.685Z,11.67
2019-01-15T13:17:56.491Z,13.80
2019-01-15T13:20:49.295Z,11.53
2019-01-15T13:23:48.831Z,15.50
2019-01-15T13:26:39.767Z,10.43
2019-01-15T13:29:30.001Z,12.70
2019-01-15T13:32:17.294Z,13.63
2019-01-15T13:35:06.684Z,14.23
2019-01-15T13:38:02.742Z,16.87
2019-01-15T13:40:45.964Z,14.87
2019-01-15T13:43:51.099Z,14.33
2019-01-15T13:46:55.164Z,15.40
2019-01-15T13:49:54.227Z,16.07
2019-01-15T13:52:57.213Z,16.30
2019-01-15T13:56:07.961Z,15.83
2019-01-15T13:59:06.173Z,16.03
2019-01-15T14:01:57.159Z,16.73
2019-01-15T14:04:44.771Z,16.67
2019-01-15T14:07:38.208Z,18.53
2019-01-15T14:10:29.946Z,15.27
2019-01-15T14:13:31.769Z,13.57
2019-01-15T14:16:39.879Z,15.80
2019-01-15T14:19:28.310Z,20.33
2019-01-15T14:22:22.781Z,19.73
2019-01-15T14:25:19.324Z,16.03
2019-01-15T14:28:09.231Z,16.00
2019-01-15T14:31:10.027Z,16.03
2019-01-15T14:34:04.837Z,18.37
2019-01-15T14:36:56.427Z,15.90
2019-01-15T14:39:43.808Z,18.07
2019-01-15T14:42:36.772Z,17.23
2019-01-15T14:45:35.235Z,17.27
2019-01-15T14:48:24.484Z,19.97
2019-01-15T14:51:23.615Z,17.67
2019-01-15T14:54:14.266Z,19.87
2019-01-15T14:57:15.567Z,17.70
2019-01-15T14:59:59.078Z,18.63
2019-01-15T15:20:32.748Z,17.40
2019-01-15T15:23:31.155Z,20.77
2019-01-15T15:26:39.780Z,18.23
2019-01-15T15:29:26.051Z,24.73
2019-01-15T15:32:14.502Z,23.57
2019-01-15T15:35:16.443Z,20.87
2019-01-15T15:38:21.540Z,21.20
2019-01-15T15:41:28.766Z,24.00
2019-01-15T15:44:09.558Z,22.77
2019-01-15T15:47:14.153Z,24.77
2019-01-15T15:50:10.679Z,22.33
2019-01-15T15:53:14.009Z,27.40
2019-01-15T15:56:02.818Z,24.10
2019-01-15T15:58:58.811Z,26.43
2019-01-15T16:01:47.528Z,25.40
2019-01-15T16:04:36.885Z,26.13
2019-01-15T16:07:25.555Z,23.53
2019-01-15T16:10:16.715Z,23.33
2019-01-15T16:13:14.190Z,23.27
2019-01-15T16:16:07.839Z,24.80
2019-01-15T16:19:04.766Z,24.87
2019-01-15T16:21:55.199Z,24.30
2019-01-15T16:24:50.859Z,21.83
2019-01-15T16:27:34.715Z,22.00
2019-01-15T16:30:32.738Z,24.67
2019-01-15T16:33:27.136Z,23.27
2019-01-15T16:36:16.182Z,23.43
2019-01-15T16:39:05.076Z,21.10
2019-01-15T16:42:06.002Z,23.90
2019-01-15T16:44:57.589Z,19.30
2019-01-15T16:47:55.069Z,18.50
2019-01-15T16:50:42.918Z,20.83
2019-01-15T16:53:30.864Z,20.97
2019-01-15T16:56:19.386Z,16.67
2019-01-15T16:59:37.026Z,15.07
2019-01-15T17:02:46.476Z,22.70
2019-01-15T17:05:34.129Z,21.77
2019-01-15T17:08:18.055Z,15.80
2019-01-15T17:11:07.099Z,14.43
2019-01-15T17:13:54.837Z,15.43
2019-01-15T17:16:43.197Z,18.60
2019-01-15T17:19:34.232Z,17.87
2019-01-15T17:22:22.201Z,14.23
2019-01-15T17:25:26.011Z,18.57
2019-01-15T17:28:04.461Z,14.27
2019-01-15T17:30:57.605Z,15.27
2019-01-15T17:33:48.769Z,18.10
2019-01-15T17:36:36.045Z,17.90
2019-01-15T17:39:27.992Z,14.27
2019-01-15T17:42:12.915Z,11.37
2019-01-15T17:45:03.825Z,13.43
2019-01-15T17:47:51.177Z,12.77
2019-01-15T17:50:39.777Z,10.23
2019-01-15T17:53:46.262Z,13.50
2019-01-15T17:56:49.895Z,10.37
2019-01-15T17:59:41.279Z,14.50
2019-01-15T18:02:32.966Z,13.07
2019-01-15T18:05:30.695Z,13.33
2019-01-15T18:08:18.043Z,9.67
2019-01-15T18:11:05.294Z,14.30
2019-01-15T18:13:56.730Z,11.57
2019-01-15T18:16:48.648Z,13.77
2019-01-15T18:19:35.967Z,11.10
2019-01-15T18:22:23.511Z,12.40
2019-01-15T18:25:15.159Z,10.37
2019-01-15T18:28:07.025Z,13.80
2019-01-15T18:31:05.254Z,11.93
2019-01-15T18:33:50.287Z,15.17
2019-01-15T18:36:39.004Z,14.60
2019-01-15T18:39:26.942Z,15.03
2019-01-15T18:42:20.320Z,14.30
2019-01-15T18:45:05.586Z,12.13
2019-01-15T18:47:54.412Z,11.03
2019-01-15T18:50:45.573Z,16.93
2019-01-15T18:53:32.364Z,13.47
2019-01-15T18:56:15.565Z,14.40
2019-01-15T18:59:13.449Z,16.97
2019-01-15T19:02:11.043Z,15.03
2019-01-15T19:05:02.965Z,20.33
2019-01-15T19:07:59.394Z,14.23
2019-01-15T19:10:53.075Z,13.27
2019-01-15T19:13:41.516Z,13.17
2019-01-15T19:16:32.413Z,14.23
2019-01-15T19:19:51.634Z,17.10
2019-01-15T19:22:45.948Z,17.37
2019-01-15T19:25:34.930Z,16.97
2019-01-15T19:28:28.811Z,17.93
2019-01-15T19:31:30.865Z,17.87
2019-01-15T19:34:20.872Z,23.10
2019-01-15T19:37:27.942Z,18.50
2019-01-15T19:40:27.149Z,19.50
2019-01-15T19:43:26.364Z,21.00
2019-01-15T19:46:32.315Z,19.70
2019-01-15T19:49:15.088Z,16.20
2019-01-15T19:52:04.982Z,17.70
2019-01-15T19:54:52.989Z,19.40
2019-01-15T19:57:48.700Z,18.37
2019-01-15T20:00:44.271Z,19.97
2019-01-15T20:03:35.774Z,19.60
2019-01-15T20:06:18.245Z,21.67
2019-01-15T20:09:07.885Z,20.00
2019-01-15T20:12:04.732Z,21.73
2019-01-15T20:15:05.637Z,15.40
2019-01-15T20:17:46.331Z,17.83
2019-01-15T20:20:24.971Z,16.40
2019-01-15T20:23:12.475Z,16.27
2019-01-15T20:26:02.151Z,16.67
2019-01-15T20:28:53.706Z,16.10
2019-01-15T20:31:50.358Z,14.90
2019-01-15T20:34:43.651Z,13.93
2019-01-15T20:37:44.744Z,15.87
2019-01-15T20:40:42.939Z,14.33
2019-01-15T20:43:31.090Z,15.30
2019-01-15T20:46:13.201Z,18.53
2019-01-15T20:48:58.769Z,18.50
2019-01-15T20:51:57.412Z,18.40
2019-01-15T20:54:36.584Z,15.67
2019-01-15T20:57:23.897Z,12.90
2019-01-15T21:00:12.529Z,17.20
2019-01-15T21:03:00.053Z,16.13
2019-01-15T21:05:47.315Z,15.17
2019-01-15T21:08:34.737Z,17.00
2019-01-15T21:11:35.925Z,13.10
2019-01-15T21:14:30.860Z,15.23
2019-01-15T21:17:19.693Z,14.47
2019-01-15T21:20:07.563Z,15.80
2019-01-15T21:22:50.842Z,12.07
2019-01-15T21:25:51.821Z,12.23
2019-01-15T21:28:32.898Z,15.37
2019-01-15T21:31:31.180Z,15.30
2019-01-15T21:34:26.186Z,14.57
2019-01-15T21:37:27.678Z,13.90
2019-01-15T21:40:16.517Z,16.33
2019-01-15T21:43:03.622Z,14.60
2019-01-15T21:45:50.968Z,16.43
2019-01-15T21:48:38.425Z,17.77
2019-01-15T21:51:39.170Z,16.27
2019-01-15T21:54:38.780Z,16.13
2019-01-15T21:57:30.274Z,19.77
2019-01-15T22:00:17.663Z,17.00
2019-01-15T22:03:09.111Z,17.70
2019-01-15T22:06:02.271Z,15.60
2019-01-15T22:08:57.098Z,17.03
2019-01-15T22:11:42.170Z,20.73
2019-01-15T22:14:35.052Z,17.53
2019-01-15T22:17:24.445Z,19.57
2019-01-15T22:20:14.647Z,21.63
2019-01-15T22:23:21.692Z,22.90
2019-01-15T22:26:16.311Z,18.03
2019-01-15T22:28:58.885Z,20.57
2019-01-15T22:31:50.577Z,25.60
2019-01-15T22:34:34.309Z,23.63
2019-01-15T22:37:25.746Z,22.90
2019-01-15T22:40:13.307Z,23.37
2019-01-15T22:43:04.894Z,27.47
2019-01-15T22:45:53.540Z,24.17
2019-01-15T22:48:40.923Z,23.87
2019-01-15T22:51:28.349Z,25.93
2019-01-15T22:54:22.753Z,21.50
2019-01-15T22:57:17.441Z,23.93
2019-01-15T23:00:06.032Z,22.03
2019-01-15T23:03:12.820Z,21.93
2019-01-15T23:06:04.703Z,22.57
2019-01-15T23:09:06.274Z,21.30
2019-01-15T23:11:48.146Z,20.40
2019-01-15T23:14:42.644Z,23.37
2019-01-15T23:17:34.058Z,21.70
2019-01-15T23:20:38.255Z,21.83
2019-01-15T23:23:26.888Z,20.07
2019-01-15T23:26:15.467Z,18.63
2019-01-15T23:29:08.054Z,20.30
2019-01-15T23:31:55.650Z,22.17
2019-01-15T23:34:37.468Z,21.93
2019-01-15T23:37:24.747Z,20.87
2019-01-15T23:40:08.258Z,23.03
2019-01-15T23:42:56.878Z,22.00
2019-01-15T23:45:45.768Z,18.50
2019-01-15T23:48:29.918Z,20.07
2019-01-15T23:51:36.679Z,20.77
2019-01-15T23:54:34.531Z,21.03
2019-01-15T23:57:41.483Z,20.60
